createdAt,value
2023-01-11T00:00:20.381Z,94230.24
2023-01-11T00:01:13.707Z,94220.75
2023-01-11T00:01:51.354Z,94224.59
2023-01-11T00:02:25.381Z,94223.86
2023-01-11T00:03:00.894Z,94225.05
2023-01-11T00:03:34.482Z,94223.23
2023-01-11T00:04:07.823Z,94221.36
2023-01-11T00:04:41.669Z,94220.73
2023-01-11T00:05:15.384Z,94219.08
2023-01-11T00:05:48.847Z,94215.23
2023-01-11T00:06:22.310Z,94216.52
2023-01-11T00:06:56.507Z,94217.42
2023-01-11T00:07:30.213Z,94214.83
2023-01-11T00:08:05.053Z,94219.47
2023-01-11T00:08:38.374Z,94219.48
2023-01-11T00:09:12.507Z,94219.34
2023-01-11T00:09:47.993Z,94217.72
2023-01-11T00:10:22.154Z,94217.44
2023-01-11T00:10:56.091Z,94215.71
2023-01-11T00:11:29.616Z,94213.25
2023-01-11T00:12:03.174Z,94212.81
2023-01-11T00:12:36.669Z,94216.81
2023-01-11T00:13:10.092Z,94215.11
2023-01-11T00:13:45.564Z,94216.59
2023-01-11T00:14:19.080Z,94213.48
2023-01-11T00:14:52.432Z,94214.73
2023-01-11T00:15:26.051Z,94215.21
2023-01-11T00:16:06.422Z,94214.98
2023-01-11T00:16:40.057Z,94214.59
2023-01-11T00:17:13.486Z,94211.64
2023-01-11T00:17:46.952Z,94211.43
2023-01-11T00:18:20.419Z,94208.69
2023-01-11T00:18:53.844Z,94211.98
2023-01-11T00:19:27.275Z,94208.66
2023-01-11T00:20:00.699Z,94205.91
2023-01-11T00:20:34.161Z,94208.17
2023-01-11T00:21:08.153Z,94203.66
2023-01-11T00:21:41.738Z,94206.60
2023-01-11T00:22:15.142Z,94210.83
2023-01-11T00:22:48.543Z,94206.02
2023-01-11T00:23:25.240Z,94206.23
2023-01-11T00:23:58.683Z,94205.53
2023-01-11T00:24:32.241Z,94203.78
2023-01-11T00:25:06.028Z,94205.73
2023-01-11T00:25:39.495Z,94203.02
2023-01-11T00:26:13.917Z,94203.92
2023-01-11T00:26:47.777Z,94203.46
2023-01-11T00:27:21.309Z,94203.40
2023-01-11T00:27:55.223Z,94204.65
2023-01-11T00:28:28.801Z,94203.11
2023-01-11T00:29:02.394Z,94202.85
2023-01-11T00:29:35.816Z,94202.68
2023-01-11T00:30:09.845Z,94203.94
2023-01-11T00:30:43.216Z,94200.95
2023-01-11T00:31:17.809Z,94203.88
2023-01-11T00:31:53.503Z,94200.13
2023-01-11T00:32:27.579Z,94202.95
2023-01-11T00:33:01.207Z,94201.65
2023-01-11T00:33:34.633Z,94200.20
2023-01-11T00:34:08.175Z,94199.84
2023-01-11T00:34:41.744Z,94201.27
2023-01-11T00:35:15.503Z,94202.23
2023-01-11T00:35:51.794Z,94202.02
2023-01-11T00:36:25.617Z,94200.48
2023-01-11T00:36:59.134Z,94200.72
2023-01-11T00:37:32.747Z,94195.37
2023-01-11T00:38:06.209Z,94195.89
2023-01-11T00:38:51.782Z,94196.06
2023-01-11T00:39:25.349Z,94196.13
2023-01-11T00:39:58.917Z,94194.36
2023-01-11T00:40:35.318Z,94191.23
2023-01-11T00:41:28.047Z,94191.98
2023-01-11T00:42:20.262Z,94192.39
2023-01-11T00:43:12.608Z,94192.90
2023-01-11T00:44:05.078Z,94195.45
2023-01-11T00:44:57.382Z,94188.98
2023-01-11T00:45:50.318Z,94189.75
2023-01-11T00:46:42.523Z,94190.54
2023-01-11T00:47:36.153Z,94187.24
2023-01-11T00:48:11.102Z,94190.64
2023-01-11T00:48:44.550Z,94191.52
2023-01-11T00:49:18.334Z,94184.30
2023-01-11T00:49:51.964Z,94191.52
2023-01-11T00:50:27.059Z,94188.55
2023-01-11T00:51:00.491Z,94182.95
2023-01-11T00:51:33.973Z,94188.15
2023-01-11T00:52:09.892Z,94189.92
2023-01-11T00:52:43.545Z,94189.44
2023-01-11T00:53:18.628Z,94186.02
2023-01-11T00:53:52.640Z,94186.63
2023-01-11T00:54:26.146Z,94184.08
2023-01-11T00:54:59.512Z,94182.51
2023-01-11T00:55:33.104Z,94185.45
2023-01-11T00:56:06.659Z,94182.23
2023-01-11T00:56:40.517Z,94181.15
2023-01-11T00:57:13.851Z,94181.45
2023-01-11T00:57:47.338Z,94179.19
2023-01-11T00:58:20.853Z,94182.41
2023-01-11T00:58:54.204Z,94181.58
2023-01-11T00:59:27.618Z,94178.55
2023-01-11T01:00:01.096Z,94178.29
2023-01-11T01:00:34.625Z,94177.89
2023-01-11T01:01:08.307Z,94181.05
2023-01-11T01:01:44.243Z,94178.59
2023-01-11T01:02:17.733Z,94182.15
2023-01-11T01:02:51.265Z,94182.67
2023-01-11T01:03:24.741Z,94180.06
2023-01-11T01:03:59.987Z,94182.73
2023-01-11T01:04:33.510Z,94182.51
2023-01-11T01:05:07.513Z,94179.01
2023-01-11T01:05:40.847Z,94183.09
2023-01-11T01:06:14.237Z,94185.11
2023-01-11T01:06:48.139Z,94184.18
2023-01-11T01:07:21.580Z,94185.54
2023-01-11T01:07:55.084Z,94184.73
2023-01-11T01:08:28.651Z,94184.89
2023-01-11T01:09:02.223Z,94182.75
2023-01-11T01:09:35.903Z,94181.38
2023-01-11T01:10:10.594Z,94185.73
2023-01-11T01:10:43.997Z,94182.89
2023-01-11T01:11:17.514Z,94182.13
2023-01-11T01:11:51.021Z,94184.23
2023-01-11T01:12:44.420Z,94185.27
2023-01-11T01:13:36.933Z,94179.59
2023-01-11T01:14:26.934Z,94178.50
2023-01-11T01:15:00.437Z,94178.23
2023-01-11T01:15:36.426Z,94182.02
2023-01-11T01:16:09.928Z,94181.28
2023-01-11T01:16:43.540Z,94180.48
2023-01-11T01:17:16.908Z,94180.70
2023-01-11T01:17:54.053Z,94180.70
2023-01-11T01:18:27.479Z,94178.52
2023-01-11T01:19:01.183Z,94179.07
2023-01-11T01:19:36.849Z,94177.10
2023-01-11T01:20:10.835Z,94176.72
2023-01-11T01:20:44.463Z,94176.86
2023-01-11T01:21:17.889Z,94178.11
2023-01-11T01:21:51.363Z,94176.89
2023-01-11T01:22:24.875Z,94173.48
2023-01-11T01:22:58.375Z,94178.73
2023-01-11T01:23:31.800Z,94181.50
2023-01-11T01:24:05.460Z,94180.60
2023-01-11T01:24:38.885Z,94183.16
2023-01-11T01:25:12.366Z,94175.14
2023-01-11T01:25:45.842Z,94181.73
2023-01-11T01:26:19.372Z,94180.00
2023-01-11T01:26:52.883Z,94183.31
2023-01-11T01:27:26.668Z,94181.34
2023-01-11T01:28:00.054Z,94178.88
2023-01-11T01:28:43.973Z,94178.73
2023-01-11T01:29:17.722Z,94181.91
2023-01-11T01:29:51.109Z,94175.28
2023-01-11T01:30:24.506Z,94176.63
2023-01-11T01:30:57.881Z,94180.95
2023-01-11T01:31:31.553Z,94170.77
2023-01-11T01:32:05.363Z,94173.52
2023-01-11T01:32:38.874Z,94176.65
2023-01-11T01:33:12.225Z,94171.13
2023-01-11T01:33:45.546Z,94175.84
2023-01-11T01:34:18.967Z,94172.20
2023-01-11T01:34:53.862Z,94178.15
2023-01-11T01:35:28.627Z,94171.02
2023-01-11T01:36:02.726Z,94174.27
2023-01-11T01:36:36.304Z,94173.34
2023-01-11T01:37:11.719Z,94170.60
2023-01-11T01:37:45.241Z,94174.21
2023-01-11T01:38:18.713Z,94176.05
2023-01-11T01:38:52.265Z,94176.96
2023-01-11T01:39:25.623Z,94177.71
2023-01-11T01:39:59.061Z,94176.23
2023-01-11T01:40:32.561Z,94173.65
2023-01-11T01:41:06.097Z,94177.05
2023-01-11T01:41:41.050Z,94170.85
2023-01-11T01:42:17.932Z,94175.42
2023-01-11T01:42:55.174Z,94174.43
2023-01-11T01:43:52.990Z,94167.85
2023-01-11T01:44:53.884Z,94177.90
2023-01-11T01:45:29.090Z,94177.96
2023-01-11T01:46:02.505Z,94180.05
2023-01-11T01:46:36.041Z,94177.44
2023-01-11T01:47:10.301Z,94176.33
2023-01-11T01:47:51.730Z,94172.55
2023-01-11T01:48:26.980Z,94177.13
2023-01-11T01:49:07.335Z,94178.02
2023-01-11T01:49:42.619Z,94180.19
2023-01-11T01:50:18.693Z,94183.86
2023-01-11T01:50:55.933Z,94175.34
2023-01-11T01:51:39.619Z,94169.55
2023-01-11T01:52:13.855Z,94181.05
2023-01-11T01:52:52.475Z,94176.21
2023-01-11T01:53:38.414Z,94172.02
2023-01-11T01:54:21.197Z,94168.40
2023-01-11T01:54:58.908Z,94169.15
2023-01-11T01:55:37.678Z,94166.61
2023-01-11T01:56:20.180Z,94165.67
2023-01-11T01:57:00.032Z,94165.80
2023-01-11T01:57:37.555Z,94161.88
2023-01-11T01:58:16.667Z,94160.49
2023-01-11T01:59:05.584Z,94164.66
2023-01-11T01:59:39.245Z,94163.72
2023-01-11T02:00:14.107Z,94164.23
2023-01-11T02:00:47.534Z,94161.79
2023-01-11T02:01:39.517Z,94161.21
2023-01-11T02:02:12.933Z,94162.79
2023-01-11T02:02:47.159Z,94163.66
2023-01-11T02:03:24.571Z,94162.92
2023-01-11T02:03:58.135Z,94162.05
2023-01-11T02:04:38.537Z,94161.13
2023-01-11T02:05:14.011Z,94159.96
2023-01-11T02:05:48.171Z,94162.21
2023-01-11T02:06:23.145Z,94160.77
2023-01-11T02:07:15.055Z,94159.36
2023-01-11T02:07:48.986Z,94154.80
2023-01-11T02:08:33.328Z,94159.45
2023-01-11T02:09:23.683Z,94161.85
2023-01-11T02:09:57.158Z,94161.73
2023-01-11T02:10:33.211Z,94160.59
2023-01-11T02:11:27.980Z,94162.59
2023-01-11T02:12:03.215Z,94156.53
2023-01-11T02:12:51.008Z,94157.55
2023-01-11T02:13:24.991Z,94153.50
2023-01-11T02:14:09.451Z,94157.71
2023-01-11T02:14:44.545Z,94156.19
2023-01-11T02:15:21.128Z,94153.21
2023-01-11T02:16:08.311Z,94152.95
2023-01-11T02:16:42.181Z,94156.83
2023-01-11T02:17:15.959Z,94160.15
2023-01-11T02:17:49.495Z,94158.73
2023-01-11T02:18:23.133Z,94162.34
2023-01-11T02:18:58.923Z,94163.32
2023-01-11T02:20:00.248Z,94163.94
2023-01-11T02:20:43.191Z,94161.73
2023-01-11T02:21:27.824Z,94161.61
2023-01-11T02:22:28.736Z,94160.16
2023-01-11T02:23:02.136Z,94162.95
2023-01-11T02:23:45.081Z,94161.51
2023-01-11T02:24:36.883Z,94158.96
2023-01-11T02:25:34.751Z,94155.55
2023-01-11T02:26:10.775Z,94157.67
2023-01-11T02:27:02.630Z,94154.59
2023-01-11T02:28:07.827Z,94153.16
2023-01-11T02:28:52.762Z,94151.58
2023-01-11T02:29:33.276Z,94153.16
2023-01-11T02:30:14.139Z,94153.08
2023-01-11T02:31:12.592Z,94151.21
2023-01-11T02:32:18.274Z,94148.84
2023-01-11T02:32:57.262Z,94147.53
2023-01-11T02:34:08.570Z,94144.81
2023-01-11T02:34:57.676Z,94143.06
2023-01-11T02:35:47.156Z,94142.86
2023-01-11T02:36:47.005Z,94140.54
2023-01-11T02:37:39.532Z,94135.27
2023-01-11T02:38:33.770Z,94142.70
2023-01-11T02:39:10.025Z,94141.16
2023-01-11T02:39:52.446Z,94142.75
2023-01-11T02:40:36.162Z,94142.85
2023-01-11T02:41:28.708Z,94142.93
2023-01-11T02:42:39.781Z,94143.36
2023-01-11T02:43:52.112Z,94143.01
2023-01-11T02:44:55.690Z,94141.36
2023-01-11T02:45:29.238Z,94136.70
2023-01-11T02:46:13.534Z,94142.57
2023-01-11T02:46:52.708Z,94139.45
2023-01-11T02:47:55.219Z,94139.59
2023-01-11T02:48:37.545Z,94140.55
2023-01-11T02:51:03.783Z,94133.53
2023-01-11T02:51:52.023Z,94122.66
2023-01-11T02:52:49.841Z,94136.09
2023-01-11T02:53:32.236Z,94133.16
2023-01-11T02:54:09.683Z,94140.10
2023-01-11T02:54:46.702Z,94137.55
2023-01-11T02:55:27.012Z,94134.14
2023-01-11T02:56:06.161Z,94136.48
2023-01-11T02:56:43.779Z,94129.39
2023-01-11T02:57:17.783Z,94133.10
2023-01-11T02:57:55.105Z,94132.04
2023-01-11T02:58:33.030Z,94135.95
2023-01-11T02:59:11.769Z,94132.22
2023-01-11T02:59:49.311Z,94130.20
2023-01-11T03:00:24.553Z,94128.98
2023-01-11T03:00:59.871Z,94128.20
2023-01-11T03:01:33.412Z,94130.59
2023-01-11T03:02:06.959Z,94127.27
2023-01-11T03:02:40.388Z,94126.91
2023-01-11T03:03:24.977Z,94127.73
2023-01-11T03:03:59.116Z,94125.23
2023-01-11T03:04:35.840Z,94127.22
2023-01-11T03:05:14.536Z,94126.07
2023-01-11T03:06:12.728Z,94127.42
2023-01-11T03:06:47.877Z,94129.39
2023-01-11T03:07:49.242Z,94132.33
2023-01-11T03:08:34.707Z,94129.42
2023-01-11T03:09:26.538Z,94129.77
2023-01-11T03:10:12.307Z,94131.49
2023-01-11T03:11:11.671Z,94123.94
2023-01-11T03:12:18.809Z,94124.43
2023-01-11T03:13:08.793Z,94121.25
2023-01-11T03:13:57.635Z,94122.20
2023-01-11T03:14:46.207Z,94120.80
2023-01-11T03:15:54.139Z,94126.61
2023-01-11T03:16:31.342Z,94122.12
2023-01-11T03:17:17.000Z,94124.34
2023-01-11T03:17:50.338Z,94120.39
2023-01-11T03:18:37.025Z,94122.15
2023-01-11T03:19:19.134Z,94116.45
2023-01-11T03:19:54.803Z,94113.18
2023-01-11T03:20:37.576Z,94114.14
2023-01-11T03:21:49.047Z,94113.34
2023-01-11T03:22:32.543Z,94110.84
2023-01-11T03:23:30.569Z,94109.80
2023-01-11T03:24:09.472Z,94106.51
2023-01-11T03:24:58.371Z,94113.15
2023-01-11T03:25:47.751Z,94108.31
2023-01-11T03:26:33.160Z,94109.54
2023-01-11T03:27:29.116Z,94106.58
2023-01-11T03:28:06.328Z,94105.02
2023-01-11T03:28:51.900Z,94102.25
2023-01-11T03:29:45.597Z,94102.54
2023-01-11T03:30:29.057Z,94097.80
2023-01-11T03:31:31.089Z,94095.77
2023-01-11T03:32:26.087Z,94095.28
2023-01-11T03:33:10.282Z,94094.77
2023-01-11T03:34:12.817Z,94091.88
2023-01-11T03:35:08.629Z,94093.41
2023-01-11T03:35:45.804Z,94089.89
2023-01-11T03:36:21.963Z,94092.73
2023-01-11T03:37:01.457Z,94092.98
2023-01-11T03:37:51.374Z,94093.23
2023-01-11T03:38:37.194Z,94092.52
2023-01-11T03:39:33.873Z,94087.56
2023-01-11T03:40:17.433Z,94084.58
2023-01-11T03:40:56.265Z,94082.34
2023-01-11T03:41:34.402Z,94080.08
2023-01-11T03:42:10.133Z,94086.08
2023-01-11T03:43:06.649Z,94083.28
2023-01-11T03:43:44.527Z,94078.31
2023-01-11T03:44:20.041Z,94078.48
2023-01-11T03:44:57.539Z,94073.65
2023-01-11T03:45:35.037Z,94078.02
2023-01-11T03:46:22.352Z,94077.59
2023-01-11T03:47:03.277Z,94079.05
2023-01-11T03:47:36.716Z,94080.69
2023-01-11T03:48:17.121Z,94080.65
2023-01-11T03:49:06.770Z,94084.73
2023-01-11T03:50:11.382Z,94084.14
2023-01-11T03:50:48.491Z,94077.02
2023-01-11T03:51:30.075Z,94082.52
2023-01-11T03:52:09.595Z,94085.11
2023-01-11T03:52:44.124Z,94083.57
2023-01-11T03:53:20.055Z,94084.68
2023-01-11T03:53:58.543Z,94085.10
2023-01-11T03:54:34.070Z,94086.35
2023-01-11T03:55:10.623Z,94087.03
2023-01-11T03:55:47.039Z,94086.11
2023-01-11T03:56:26.507Z,94087.55
2023-01-11T03:57:20.629Z,94086.80
2023-01-11T03:57:55.883Z,94085.50
2023-01-11T03:58:29.842Z,94084.10
2023-01-11T03:59:03.358Z,94086.25
2023-01-11T03:59:38.660Z,94084.45
2023-01-11T04:00:12.430Z,94084.80
2023-01-11T04:00:46.549Z,94082.86
2023-01-11T04:01:20.120Z,94084.36
2023-01-11T04:01:57.213Z,94085.36
2023-01-11T04:02:40.536Z,94087.02
2023-01-11T04:03:14.933Z,94085.61
2023-01-11T04:03:48.260Z,94090.84
2023-01-11T04:04:22.256Z,94085.27
2023-01-11T04:04:55.667Z,94084.73
2023-01-11T04:05:29.354Z,94083.04
2023-01-11T04:06:03.375Z,94079.35
2023-01-11T04:06:38.674Z,94080.19
2023-01-11T04:07:12.161Z,94084.54
2023-01-11T04:07:45.986Z,94080.67
2023-01-11T04:08:19.967Z,94078.15
2023-01-11T04:08:53.365Z,94064.80
2023-01-11T04:09:26.722Z,94075.79
2023-01-11T04:10:00.260Z,94075.92
2023-01-11T04:10:33.692Z,94074.14
2023-01-11T04:11:07.627Z,94071.69
2023-01-11T04:11:41.075Z,94075.35
2023-01-11T04:12:14.552Z,94073.17
2023-01-11T04:12:49.043Z,94070.27
2023-01-11T04:13:22.549Z,94072.60
2023-01-11T04:13:56.059Z,94066.69
2023-01-11T04:14:29.586Z,94073.04
2023-01-11T04:15:05.368Z,94070.74
2023-01-11T04:15:38.856Z,94064.33
2023-01-11T04:16:12.293Z,94066.81
2023-01-11T04:16:45.740Z,94069.15
2023-01-11T04:17:19.171Z,94069.42
2023-01-11T04:17:52.654Z,94063.75
2023-01-11T04:18:26.183Z,94068.94
2023-01-11T04:19:00.133Z,94061.72
2023-01-11T04:19:33.507Z,94062.69
2023-01-11T04:20:10.139Z,94058.58
2023-01-11T04:20:43.593Z,94061.45
2023-01-11T04:21:17.074Z,94065.20
2023-01-11T04:21:50.416Z,94063.92
2023-01-11T04:22:23.847Z,94060.16
2023-01-11T04:22:57.238Z,94061.47
2023-01-11T04:23:31.177Z,94053.23
2023-01-11T04:24:04.737Z,94054.48
2023-01-11T04:24:38.106Z,94057.20
2023-01-11T04:25:11.528Z,94055.63
2023-01-11T04:25:45.031Z,94050.83
2023-01-11T04:26:18.407Z,94051.04
2023-01-11T04:26:51.813Z,94054.21
2023-01-11T04:27:25.153Z,94055.27
2023-01-11T04:27:59.420Z,94059.33
2023-01-11T04:28:34.517Z,94056.45
2023-01-11T04:29:07.891Z,94060.08
2023-01-11T04:29:41.434Z,94053.94
2023-01-11T04:30:15.134Z,94054.45
2023-01-11T04:30:48.512Z,94047.44
2023-01-11T04:31:22.180Z,94047.24
2023-01-11T04:31:55.717Z,94048.58
2023-01-11T04:32:29.178Z,94046.31
2023-01-11T04:33:02.552Z,94047.07
2023-01-11T04:33:36.091Z,94049.05
2023-01-11T04:34:09.659Z,94036.08
2023-01-11T04:34:43.326Z,94047.00
2023-01-11T04:35:16.811Z,94047.81
2023-01-11T04:35:50.520Z,94048.42
2023-01-11T04:36:24.370Z,94049.17
2023-01-11T04:36:57.735Z,94048.91
2023-01-11T04:37:31.260Z,94050.61
2023-01-11T04:38:06.848Z,94053.58
2023-01-11T04:38:40.174Z,94055.27
2023-01-11T04:39:13.536Z,94059.41
2023-01-11T04:39:47.177Z,94057.89
2023-01-11T04:40:20.653Z,94059.34
2023-01-11T04:41:14.158Z,94056.76
2023-01-11T04:42:06.442Z,94059.17
2023-01-11T04:42:40.020Z,94067.00
2023-01-11T04:43:13.648Z,94067.81
2023-01-11T04:43:47.023Z,94070.09
2023-01-11T04:44:20.382Z,94073.62
2023-01-11T04:44:53.821Z,94071.98
2023-01-11T04:45:27.177Z,94076.09
2023-01-11T04:46:00.641Z,94080.08
2023-01-11T04:46:34.362Z,94078.73
2023-01-11T04:47:07.730Z,94081.17
2023-01-11T04:47:41.210Z,94087.48
2023-01-11T04:48:14.552Z,94081.82
2023-01-11T04:48:48.031Z,94082.61
2023-01-11T04:49:21.416Z,94088.48
2023-01-11T04:49:54.902Z,94080.41
2023-01-11T04:50:28.432Z,94077.82
2023-01-11T04:51:01.901Z,94078.81
2023-01-11T04:51:35.343Z,94076.80
2023-01-11T04:52:11.649Z,94074.00
2023-01-11T04:52:45.097Z,94070.75
2023-01-11T04:53:18.412Z,94077.39
2023-01-11T04:53:51.981Z,94077.27
2023-01-11T04:54:25.401Z,94075.91
2023-01-11T04:54:58.753Z,94073.93
2023-01-11T04:55:32.149Z,94071.40
2023-01-11T04:56:07.244Z,94076.58
2023-01-11T04:56:40.774Z,94074.73
2023-01-11T04:57:16.356Z,94075.80
2023-01-11T04:57:49.730Z,94077.73
2023-01-11T04:58:23.102Z,94077.08
2023-01-11T04:58:56.877Z,94075.83
2023-01-11T04:59:30.519Z,94068.79
2023-01-11T05:00:11.019Z,94071.36
2023-01-11T05:00:44.503Z,94070.98
2023-01-11T05:01:19.633Z,94071.48
2023-01-11T05:01:53.121Z,94069.39
2023-01-11T05:02:26.699Z,94069.70
2023-01-11T05:03:00.159Z,94067.91
2023-01-11T05:03:33.626Z,94067.96
2023-01-11T05:04:07.232Z,94065.73
2023-01-11T05:04:40.823Z,94063.80
2023-01-11T05:05:14.251Z,94069.02
2023-01-11T05:06:01.623Z,94068.68
2023-01-11T05:06:35.042Z,94067.34
2023-01-11T05:07:09.530Z,94069.66
2023-01-11T05:07:43.137Z,94068.23
2023-01-11T05:08:16.544Z,94062.88
2023-01-11T05:08:49.967Z,94065.15
2023-01-11T05:09:23.477Z,94065.33
2023-01-11T05:09:56.788Z,94066.30
2023-01-11T05:10:32.460Z,94063.23
2023-01-11T05:11:08.620Z,94062.74
2023-01-11T05:11:42.261Z,94060.20
2023-01-11T05:12:15.664Z,94062.96
2023-01-11T05:12:49.075Z,94063.23
2023-01-11T05:13:41.639Z,94060.86
2023-01-11T05:14:16.771Z,94059.70
2023-01-11T05:14:50.227Z,94060.11
2023-01-11T05:15:23.924Z,94060.90
2023-01-11T05:15:57.274Z,94058.40
2023-01-11T05:16:30.780Z,94059.73
2023-01-11T05:17:04.204Z,94062.67
2023-01-11T05:17:37.687Z,94067.41
2023-01-11T05:18:11.236Z,94063.34
2023-01-11T05:18:48.862Z,94065.54
2023-01-11T05:19:22.291Z,94061.38
2023-01-11T05:19:55.677Z,94060.11
2023-01-11T05:20:28.997Z,94057.33
2023-01-11T05:21:02.851Z,94058.48
2023-01-11T05:21:39.440Z,94056.36
2023-01-11T05:22:12.853Z,94057.53
2023-01-11T05:22:46.211Z,94059.05
2023-01-11T05:23:19.571Z,94055.78
2023-01-11T05:23:54.398Z,94057.12
2023-01-11T05:24:27.927Z,94053.05
2023-01-11T05:25:01.388Z,94054.26
2023-01-11T05:25:34.885Z,94057.86
2023-01-11T05:26:20.458Z,94053.95
2023-01-11T05:26:53.857Z,94053.83
2023-01-11T05:27:27.245Z,94055.73
2023-01-11T05:28:00.621Z,94056.23
2023-01-11T05:28:35.122Z,94056.85
2023-01-11T05:29:11.322Z,94054.73
2023-01-11T05:29:45.936Z,94050.54
2023-01-11T05:30:19.651Z,94050.30
2023-01-11T05:30:53.659Z,94045.99
2023-01-11T05:31:27.636Z,94042.50
2023-01-11T05:32:01.443Z,94043.64
2023-01-11T05:32:35.002Z,94044.32
2023-01-11T05:33:08.382Z,94043.11
2023-01-11T05:33:42.073Z,94044.15
2023-01-11T05:34:16.794Z,94039.23
2023-01-11T05:34:50.186Z,94039.75
2023-01-11T05:35:23.841Z,94042.02
2023-01-11T05:36:02.821Z,94040.77
2023-01-11T05:36:36.794Z,94038.83
2023-01-11T05:37:10.108Z,94039.58
2023-01-11T05:37:43.597Z,94043.27
2023-01-11T05:38:17.174Z,94042.22
2023-01-11T05:38:52.438Z,94041.05
2023-01-11T05:39:25.952Z,94042.01
2023-01-11T05:39:59.330Z,94039.36
2023-01-11T05:40:32.806Z,94037.45
2023-01-11T05:41:08.722Z,94038.63
2023-01-11T05:41:42.390Z,94040.80
2023-01-11T05:42:16.957Z,94041.34
2023-01-11T05:42:50.492Z,94043.86
2023-01-11T05:43:24.050Z,94045.17
2023-01-11T05:44:16.389Z,94040.38
2023-01-11T05:45:08.562Z,94046.88
2023-01-11T05:45:41.957Z,94042.36
2023-01-11T05:46:15.391Z,94045.13
2023-01-11T05:46:49.065Z,94049.00
2023-01-11T05:47:24.782Z,94048.69
2023-01-11T05:47:59.573Z,94053.83
2023-01-11T05:48:32.930Z,94056.10
2023-01-11T05:49:07.453Z,94054.20
2023-01-11T05:49:40.787Z,94051.65
2023-01-11T05:50:14.214Z,94050.16
2023-01-11T05:51:05.561Z,94050.16
2023-01-11T05:51:40.057Z,94048.35
2023-01-11T05:52:13.466Z,94045.46
2023-01-11T05:52:46.908Z,94050.61
2023-01-11T05:53:21.905Z,94045.02
2023-01-11T05:53:56.707Z,94046.43
2023-01-11T05:54:30.328Z,94043.16
2023-01-11T05:55:04.021Z,94040.28
2023-01-11T05:55:37.476Z,94044.23
2023-01-11T05:56:13.364Z,94041.52
2023-01-11T05:56:46.883Z,94042.20
2023-01-11T05:57:20.616Z,94039.62
2023-01-11T05:57:55.238Z,94044.16
2023-01-11T05:58:28.719Z,94044.84
2023-01-11T05:59:04.125Z,94038.85
2023-01-11T05:59:37.696Z,94040.58
2023-01-11T06:00:12.891Z,94039.98
2023-01-11T06:00:51.122Z,94040.19
2023-01-11T06:01:25.512Z,94039.54
2023-01-11T06:01:58.981Z,94035.80
2023-01-11T06:02:32.719Z,94036.98
2023-01-11T06:03:06.681Z,94037.75
2023-01-11T06:03:40.075Z,94032.47
2023-01-11T06:04:13.537Z,94036.52
2023-01-11T06:04:46.941Z,94034.64
2023-01-11T06:05:20.607Z,94036.73
2023-01-11T06:05:54.756Z,94032.46
2023-01-11T06:06:28.194Z,94033.45
2023-01-11T06:07:01.667Z,94032.58
2023-01-11T06:07:35.202Z,94030.09
2023-01-11T06:08:08.832Z,94033.88
2023-01-11T06:08:42.262Z,94032.21
2023-01-11T06:09:15.707Z,94025.54
2023-01-11T06:09:49.097Z,94031.93
2023-01-11T06:10:22.500Z,94021.70
2023-01-11T06:10:57.116Z,94028.95
2023-01-11T06:11:30.633Z,94032.45
2023-01-11T06:12:04.042Z,94032.51
2023-01-11T06:12:37.388Z,94032.70
2023-01-11T06:13:29.025Z,94034.10
2023-01-11T06:14:02.505Z,94032.04
2023-01-11T06:14:38.038Z,94034.11
2023-01-11T06:15:11.791Z,94036.09
2023-01-11T06:15:45.205Z,94031.55
2023-01-11T06:16:20.805Z,94034.21
2023-01-11T06:16:55.096Z,94036.58
2023-01-11T06:17:28.597Z,94035.92
2023-01-11T06:18:02.024Z,94032.46
2023-01-11T06:18:38.040Z,94031.13
2023-01-11T06:19:11.708Z,94033.12
2023-01-11T06:19:45.039Z,94029.98
2023-01-11T06:20:18.494Z,94032.20
2023-01-11T06:20:53.822Z,94033.09
2023-01-11T06:21:27.302Z,94029.95
2023-01-11T06:22:00.706Z,94032.12
2023-01-11T06:22:34.140Z,94034.36
2023-01-11T06:23:07.640Z,94029.11
2023-01-11T06:23:44.313Z,94034.98
2023-01-11T06:24:17.965Z,94029.52
2023-01-11T06:24:51.447Z,94030.34
2023-01-11T06:25:24.870Z,94030.41
2023-01-11T06:26:02.629Z,94027.14
2023-01-11T06:26:38.808Z,94024.72
2023-01-11T06:27:17.731Z,94023.30
2023-01-11T06:27:52.987Z,94021.34
2023-01-11T06:28:26.400Z,94026.52
2023-01-11T06:28:59.811Z,94026.70
2023-01-11T06:29:33.375Z,94024.67
2023-01-11T06:30:07.660Z,94028.15
2023-01-11T06:30:41.492Z,94031.73
2023-01-11T06:31:17.615Z,94025.35
2023-01-11T06:31:51.522Z,94027.21
2023-01-11T06:32:24.971Z,94029.94
2023-01-11T06:33:07.744Z,94029.80
2023-01-11T06:33:41.373Z,94023.71
2023-01-11T06:34:14.807Z,94030.13
2023-01-11T06:34:48.142Z,94027.97
2023-01-11T06:35:21.926Z,94026.45
2023-01-11T06:35:56.145Z,94025.75
2023-01-11T06:36:29.900Z,94025.34
2023-01-11T06:37:03.441Z,94026.59
2023-01-11T06:37:36.867Z,94025.27
2023-01-11T06:38:12.512Z,94022.59
2023-01-11T06:38:46.089Z,94021.20
2023-01-11T06:39:19.740Z,94016.98
2023-01-11T06:39:53.073Z,94017.26
2023-01-11T06:40:26.473Z,94017.02
2023-01-11T06:41:02.228Z,94019.48
2023-01-11T06:41:35.639Z,94017.29
2023-01-11T06:42:08.990Z,94017.49
2023-01-11T06:42:42.629Z,94016.50
2023-01-11T06:43:16.063Z,94014.48
2023-01-11T06:43:51.322Z,94016.92
2023-01-11T06:44:24.745Z,94013.75
2023-01-11T06:44:58.079Z,94015.98
2023-01-11T06:45:31.928Z,94019.56
2023-01-11T06:46:07.633Z,94021.16
2023-01-11T06:46:41.366Z,94021.86
2023-01-11T06:47:14.809Z,94018.39
2023-01-11T06:47:48.437Z,94018.09
2023-01-11T06:48:23.357Z,94018.05
2023-01-11T06:48:56.766Z,94020.52
2023-01-11T06:49:30.384Z,94017.05
2023-01-11T06:50:04.622Z,94021.13
2023-01-11T06:50:37.984Z,94023.43
2023-01-11T06:51:12.240Z,94024.08
2023-01-11T06:51:45.728Z,94018.69
2023-01-11T06:52:19.099Z,94021.09
2023-01-11T06:53:01.071Z,94022.24
2023-01-11T06:53:34.440Z,94021.84
2023-01-11T06:54:07.905Z,94019.23
2023-01-11T06:54:41.321Z,94015.33
2023-01-11T06:55:14.734Z,94022.02
2023-01-11T06:55:52.739Z,94020.51
2023-01-11T06:56:26.174Z,94021.08
2023-01-11T06:56:59.515Z,94020.84
2023-01-11T06:57:33.916Z,94019.13
2023-01-11T06:58:07.342Z,94022.67
2023-01-11T06:58:40.917Z,94026.77
2023-01-11T06:59:14.337Z,94024.43
2023-01-11T06:59:47.750Z,94028.83
2023-01-11T07:00:21.808Z,94026.54
2023-01-11T07:00:57.339Z,94025.93
2023-01-11T07:01:32.541Z,94025.63
2023-01-11T07:02:06.621Z,94024.31
2023-01-11T07:02:39.988Z,94022.13
2023-01-11T07:03:13.644Z,94015.94
2023-01-11T07:03:47.004Z,94025.33
2023-01-11T07:04:21.833Z,94026.14
2023-01-11T07:04:55.293Z,94028.65
2023-01-11T07:05:28.718Z,94031.40
2023-01-11T07:06:02.857Z,94034.05
2023-01-11T07:06:36.494Z,94033.10
2023-01-11T07:07:10.011Z,94036.05
2023-01-11T07:07:44.196Z,94038.34
2023-01-11T07:08:17.667Z,94039.41
2023-01-11T07:08:51.056Z,94039.14
2023-01-11T07:09:24.396Z,94045.39
2023-01-11T07:09:57.753Z,94039.88
2023-01-11T07:10:31.444Z,94045.48
2023-01-11T07:11:05.057Z,94045.95
2023-01-11T07:11:39.433Z,94040.92
2023-01-11T07:12:12.777Z,94043.17
2023-01-11T07:12:46.148Z,94042.84
2023-01-11T07:13:19.905Z,94044.00
2023-01-11T07:13:53.229Z,94047.30
2023-01-11T07:14:26.632Z,94044.29
2023-01-11T07:15:00.157Z,94040.67
2023-01-11T07:15:33.886Z,94041.05
2023-01-11T07:16:07.589Z,94043.73
2023-01-11T07:16:41.721Z,94042.97
2023-01-11T07:17:15.190Z,94039.31
2023-01-11T07:17:53.383Z,94039.64